Imbuia, Brazil
Current Conditions -  °F | °C
As of 2:00 PM on Wednesday 28 Jan 2015 (Local Time) from SBFL Reporting Station
Few Clouds Few Clouds  
Wind Chill: 91°   Ceiling: Unl
Heat Index: 102°   Visibility: 6mi
Dew Point: 75°   Wind: 15mph
Humidity: 59%   Direction: 30°NNE
Pressure: 29.8"   Gusts: NA
Location:  27.49°S, 49.42°W
Report Text: SBFL 281600Z 03013KT 9999 FEW030 33/24 Q1009
Loading
Personal Weather Stations






























Interactive Weather Map New forecast layout! Learn more

10-Day Weather Forecast

Advertisements
Track Severe Weather on mobile